createdAt,value
2023-05-22T00:01:57.352Z,220.24
2023-05-22T00:04:31.028Z,229.66
2023-05-22T00:07:04.885Z,233.44
2023-05-22T00:09:39.447Z,239.86
2023-05-22T00:12:12.747Z,237.82
2023-05-22T00:14:46.002Z,231.59
2023-05-22T00:17:19.300Z,231.45
2023-05-22T00:19:54.000Z,230.14
2023-05-22T00:22:28.401Z,229.38
2023-05-22T00:25:03.300Z,222.50
2023-05-22T00:27:36.559Z,221.31
2023-05-22T00:30:11.244Z,219.71
2023-05-22T00:32:44.529Z,220.83
2023-05-22T00:35:17.803Z,220.45
2023-05-22T00:37:51.051Z,218.89
2023-05-22T00:40:26.208Z,220.66
2023-05-22T00:42:59.440Z,218.84
2023-05-22T00:45:33.625Z,217.80
2023-05-22T00:48:09.687Z,214.42
2023-05-22T00:50:43.133Z,213.87
2023-05-22T00:53:16.904Z,208.86
2023-05-22T00:55:52.714Z,210.37
2023-05-22T00:58:28.065Z,214.49
2023-05-22T01:01:01.924Z,209.56
2023-05-22T01:03:35.311Z,210.70
2023-05-22T01:06:08.776Z,214.98
2023-05-22T01:08:42.459Z,211.51
2023-05-22T01:11:24.410Z,201.61
2023-05-22T01:14:08.460Z,203.23
2023-05-22T01:16:52.902Z,208.48
2023-05-22T01:20:01.443Z,204.72
2023-05-22T01:22:58.632Z,197.31
2023-05-22T01:26:03.895Z,194.62
2023-05-22T01:29:04.310Z,207.12
2023-05-22T01:31:42.616Z,206.12
2023-05-22T01:34:20.037Z,206.19
2023-05-22T01:36:55.875Z,199.92
2023-05-22T01:39:30.210Z,200.61
2023-05-22T01:42:03.578Z,195.10
2023-05-22T01:44:36.745Z,190.10
2023-05-22T01:47:11.326Z,195.35
2023-05-22T01:49:45.002Z,197.39
2023-05-22T01:52:30.016Z,195.59
2023-05-22T01:55:13.552Z,195.84
2023-05-22T01:57:55.062Z,189.01
2023-05-22T02:00:30.288Z,190.59
2023-05-22T02:03:09.893Z,181.58
2023-05-22T02:05:46.738Z,186.11
2023-05-22T02:08:22.184Z,186.62
2023-05-22T02:10:57.843Z,184.95
2023-05-22T02:13:31.678Z,187.17
2023-05-22T02:16:06.326Z,185.08
2023-05-22T02:18:41.968Z,190.32
2023-05-22T02:21:15.514Z,187.29
2023-05-22T02:23:48.764Z,183.99
2023-05-22T02:26:21.952Z,186.69
2023-05-22T02:28:56.167Z,179.81
2023-05-22T02:31:29.480Z,184.41
2023-05-22T02:34:05.511Z,183.97
2023-05-22T02:36:39.820Z,186.17
2023-05-22T02:39:13.109Z,182.08
2023-05-22T02:41:48.831Z,182.04
2023-05-22T02:44:22.092Z,184.10
2023-05-22T02:46:55.383Z,183.80
2023-05-22T02:49:30.057Z,183.22
2023-05-22T02:52:06.001Z,181.48
2023-05-22T02:54:39.192Z,178.77
2023-05-22T02:57:12.396Z,177.14
2023-05-22T02:59:45.727Z,179.33
2023-05-22T03:02:20.036Z,178.55
2023-05-22T03:04:59.158Z,175.66
2023-05-22T03:07:32.509Z,181.27
2023-05-22T03:10:06.976Z,185.52
2023-05-22T03:12:42.401Z,185.99
2023-05-22T03:15:18.369Z,189.89
2023-05-22T03:17:51.658Z,185.91
2023-05-22T03:20:26.503Z,188.39
2023-05-22T03:22:59.679Z,184.12
2023-05-22T03:25:32.876Z,188.00
2023-05-22T03:28:06.358Z,182.06
2023-05-22T03:30:43.628Z,188.23
2023-05-22T03:33:27.692Z,189.99
2023-05-22T03:36:03.628Z,189.47
2023-05-22T03:38:36.815Z,190.51
2023-05-22T03:41:10.024Z,203.09
2023-05-22T03:43:44.997Z,202.03
2023-05-22T03:46:18.997Z,204.51
2023-05-22T03:48:52.445Z,208.45
2023-05-22T03:51:27.018Z,202.05
2023-05-22T03:54:00.280Z,206.23
2023-05-22T03:56:33.432Z,210.66
2023-05-22T03:59:06.562Z,211.30
2023-05-22T04:01:40.103Z,216.08
2023-05-22T04:04:13.588Z,215.38
2023-05-22T04:06:48.287Z,215.86
2023-05-22T04:09:21.530Z,221.58
2023-05-22T04:11:56.153Z,221.29
2023-05-22T04:14:29.544Z,227.06
2023-05-22T04:17:02.768Z,226.85
2023-05-22T04:19:36.365Z,234.18
2023-05-22T04:22:10.913Z,244.04
2023-05-22T04:24:44.121Z,248.70
2023-05-22T04:27:17.501Z,247.98
2023-05-22T04:29:51.443Z,250.01
2023-05-22T04:32:24.636Z,252.52
2023-05-22T04:35:00.569Z,244.45
2023-05-22T04:37:35.837Z,248.17
2023-05-22T04:40:10.181Z,264.50
2023-05-22T04:42:44.686Z,279.51
2023-05-22T04:45:19.425Z,292.54
2023-05-22T04:47:53.608Z,306.10
2023-05-22T04:50:27.203Z,321.14
2023-05-22T04:53:04.294Z,326.62
2023-05-22T04:55:37.628Z,316.76
2023-05-22T04:58:10.820Z,315.99
2023-05-22T05:00:44.557Z,315.99
2023-05-22T05:03:18.285Z,326.51
2023-05-22T05:05:51.556Z,325.66
2023-05-22T05:08:26.219Z,315.86
2023-05-22T05:10:59.883Z,319.72
2023-05-22T05:13:33.100Z,336.18
2023-05-22T05:16:06.849Z,331.98
2023-05-22T05:18:40.068Z,337.31
2023-05-22T05:21:13.187Z,334.79
2023-05-22T05:23:47.805Z,330.46
2023-05-22T05:26:21.750Z,321.16
2023-05-22T05:28:56.724Z,317.85
2023-05-22T05:31:34.149Z,334.69
2023-05-22T05:34:27.668Z,344.65
2023-05-22T05:37:24.595Z,341.87
2023-05-22T05:40:00.308Z,341.21
2023-05-22T05:42:33.593Z,346.62
2023-05-22T05:45:09.859Z,346.50
2023-05-22T05:47:43.508Z,349.78
2023-05-22T05:50:17.274Z,361.23
2023-05-22T05:52:50.565Z,359.96
2023-05-22T05:55:26.938Z,370.47
2023-05-22T05:58:01.181Z,360.27
2023-05-22T06:00:45.451Z,352.83
2023-05-22T06:03:18.983Z,356.09
2023-05-22T06:06:07.387Z,354.01
2023-05-22T06:09:16.406Z,350.27
2023-05-22T06:12:12.801Z,364.36
2023-05-22T06:14:49.384Z,348.91
2023-05-22T06:17:22.855Z,353.67
2023-05-22T06:19:56.564Z,357.76
2023-05-22T06:22:30.547Z,354.81
2023-05-22T06:25:05.403Z,361.46
2023-05-22T06:27:41.642Z,344.32
2023-05-22T06:30:18.451Z,329.83
2023-05-22T06:32:58.961Z,340.48
2023-05-22T06:35:32.837Z,334.10
2023-05-22T06:38:06.027Z,335.59
2023-05-22T06:40:40.960Z,343.29
2023-05-22T06:43:21.497Z,344.55
2023-05-22T06:46:05.603Z,340.63
2023-05-22T06:48:54.360Z,332.63
2023-05-22T06:51:32.720Z,320.65
2023-05-22T06:54:14.100Z,324.91
2023-05-22T06:56:50.850Z,321.39
2023-05-22T06:59:26.071Z,325.84
2023-05-22T07:02:11.328Z,330.13
2023-05-22T07:05:02.968Z,329.16
2023-05-22T07:07:49.582Z,318.34
2023-05-22T07:10:25.091Z,322.36
2023-05-22T07:12:58.870Z,320.80
2023-05-22T07:15:33.480Z,329.37
2023-05-22T07:18:09.752Z,324.54
2023-05-22T07:20:46.624Z,331.04
2023-05-22T07:23:26.196Z,332.37
2023-05-22T07:25:59.724Z,336.73
2023-05-22T07:28:38.910Z,343.51
2023-05-22T07:31:20.176Z,348.52
2023-05-22T07:33:54.756Z,348.58
2023-05-22T07:36:27.967Z,367.18
2023-05-22T07:39:01.298Z,387.39
2023-05-22T07:41:34.632Z,405.58
2023-05-22T07:44:08.294Z,403.71
2023-05-22T07:46:45.615Z,417.21
2023-05-22T07:49:24.325Z,424.40
2023-05-22T07:51:57.780Z,420.03
2023-05-22T07:54:32.257Z,424.02
2023-05-22T07:57:05.647Z,436.76
2023-05-22T07:59:44.086Z,441.66
2023-05-22T08:02:18.797Z,441.70
2023-05-22T08:04:52.015Z,453.17
2023-05-22T08:07:25.267Z,446.27
2023-05-22T08:09:58.455Z,452.08
2023-05-22T08:12:31.630Z,461.06
2023-05-22T08:15:05.461Z,459.29
2023-05-22T08:17:40.326Z,459.81
2023-05-22T08:20:14.122Z,451.21
2023-05-22T08:22:47.388Z,443.09
2023-05-22T08:25:20.646Z,442.98
2023-05-22T08:27:53.854Z,460.99
2023-05-22T08:30:27.075Z,473.94
2023-05-22T08:33:01.707Z,483.89
2023-05-22T08:35:35.029Z,481.20
2023-05-22T08:38:08.216Z,474.08
2023-05-22T08:40:49.575Z,454.08
2023-05-22T08:43:22.945Z,447.60
2023-05-22T08:46:02.241Z,457.74
2023-05-22T08:48:37.328Z,464.32
2023-05-22T08:51:16.293Z,468.47
2023-05-22T08:53:54.849Z,478.05
2023-05-22T08:56:29.718Z,480.93
2023-05-22T08:59:04.800Z,492.86
2023-05-22T09:01:38.725Z,483.01
2023-05-22T09:04:14.507Z,481.98
2023-05-22T09:06:48.761Z,493.62
2023-05-22T09:09:22.028Z,497.55
2023-05-22T09:11:56.361Z,488.87
2023-05-22T09:14:31.288Z,489.78
2023-05-22T09:17:04.507Z,500.90
2023-05-22T09:19:40.290Z,488.35
2023-05-22T09:22:14.486Z,479.12
2023-05-22T09:24:47.998Z,475.13
2023-05-22T09:27:25.108Z,482.63
2023-05-22T09:29:58.916Z,493.93
2023-05-22T09:32:32.631Z,507.76
2023-05-22T09:35:08.162Z,499.46
2023-05-22T09:37:42.468Z,502.87
2023-05-22T09:40:15.659Z,484.89
2023-05-22T09:42:48.884Z,490.32
2023-05-22T09:45:24.163Z,489.02
2023-05-22T09:47:57.960Z,482.07
2023-05-22T09:50:32.852Z,485.43
2023-05-22T09:53:06.840Z,473.73
2023-05-22T09:55:41.148Z,475.97
2023-05-22T09:58:17.279Z,468.83
2023-05-22T10:00:52.089Z,484.66
2023-05-22T10:03:27.586Z,476.64
2023-05-22T10:06:03.980Z,479.93
2023-05-22T10:08:44.430Z,473.31
2023-05-22T10:11:18.661Z,474.53
2023-05-22T10:13:52.940Z,464.07
2023-05-22T10:16:27.710Z,455.05
2023-05-22T10:19:02.419Z,462.89
2023-05-22T10:21:37.952Z,444.81
2023-05-22T10:24:11.464Z,452.52
2023-05-22T10:26:45.820Z,447.52
2023-05-22T10:29:26.622Z,454.93
2023-05-22T10:32:07.755Z,455.10
2023-05-22T10:34:58.646Z,459.06
2023-05-22T10:37:49.903Z,460.80
2023-05-22T10:40:30.458Z,452.95
2023-05-22T10:43:05.107Z,459.40
2023-05-22T10:45:38.301Z,449.47
2023-05-22T10:48:13.252Z,441.47
2023-05-22T10:50:53.648Z,443.13
2023-05-22T10:53:32.381Z,448.01
2023-05-22T10:56:13.592Z,441.85
2023-05-22T10:58:57.726Z,443.10
2023-05-22T11:01:31.009Z,452.78
2023-05-22T11:04:12.938Z,444.93
2023-05-22T11:06:50.850Z,452.09
2023-05-22T11:09:31.714Z,449.09
2023-05-22T11:12:17.506Z,445.23
2023-05-22T11:14:53.058Z,439.14
2023-05-22T11:17:29.167Z,457.98
2023-05-22T11:20:05.982Z,460.62
2023-05-22T11:22:43.173Z,455.13
2023-05-22T11:25:20.188Z,451.15
2023-05-22T11:27:56.169Z,461.47
2023-05-22T11:30:30.920Z,448.28
2023-05-22T11:33:04.681Z,454.68
2023-05-22T11:35:40.917Z,448.17
2023-05-22T11:38:15.880Z,450.52
2023-05-22T11:40:53.252Z,460.75
2023-05-22T11:43:33.146Z,452.91
2023-05-22T11:46:11.582Z,465.92
2023-05-22T11:48:44.792Z,458.33
2023-05-22T11:51:21.331Z,451.85
2023-05-22T11:53:55.173Z,459.57
2023-05-22T11:56:29.773Z,455.88
2023-05-22T11:59:04.022Z,449.87
2023-05-22T12:01:37.266Z,446.58
2023-05-22T12:04:10.507Z,459.84
2023-05-22T12:06:43.928Z,485.34
2023-05-22T12:09:17.111Z,489.73
2023-05-22T12:11:51.921Z,478.59
2023-05-22T12:14:27.664Z,469.99
2023-05-22T12:17:01.330Z,458.80
2023-05-22T12:19:34.541Z,462.32
2023-05-22T12:22:08.210Z,468.95
2023-05-22T12:24:44.101Z,458.18
2023-05-22T12:27:18.655Z,453.62
2023-05-22T12:29:52.913Z,457.14
2023-05-22T12:32:27.097Z,448.10
2023-05-22T12:35:00.711Z,445.25
2023-05-22T12:37:35.664Z,448.75
2023-05-22T12:40:10.578Z,465.49
2023-05-22T12:42:45.850Z,463.46
2023-05-22T12:45:19.219Z,484.34
2023-05-22T12:47:52.409Z,494.35
2023-05-22T12:50:25.941Z,482.87
2023-05-22T12:52:59.225Z,483.76
2023-05-22T12:55:32.437Z,470.59
2023-05-22T12:58:07.222Z,475.23
2023-05-22T13:00:40.708Z,476.01
2023-05-22T13:03:14.250Z,455.58
2023-05-22T13:05:47.349Z,468.51
2023-05-22T13:08:20.500Z,477.67
2023-05-22T13:10:53.677Z,466.79
2023-05-22T13:13:28.177Z,467.40
2023-05-22T13:16:01.318Z,484.31
2023-05-22T13:18:34.487Z,488.56
2023-05-22T13:21:07.669Z,484.17
2023-05-22T13:23:41.066Z,489.09
2023-05-22T13:26:14.197Z,483.54
2023-05-22T13:28:48.752Z,484.46
2023-05-22T13:31:22.025Z,489.92
2023-05-22T13:33:55.269Z,493.76
2023-05-22T13:36:28.492Z,499.68
2023-05-22T13:39:01.738Z,484.99
2023-05-22T13:41:35.101Z,497.38
2023-05-22T13:44:09.685Z,510.45
2023-05-22T13:46:42.919Z,491.39
2023-05-22T13:49:16.208Z,481.19
2023-05-22T13:51:49.421Z,485.88
2023-05-22T13:54:22.551Z,488.83
2023-05-22T13:56:57.653Z,478.91
2023-05-22T13:59:32.333Z,474.95
2023-05-22T14:02:06.054Z,485.79
2023-05-22T14:04:39.250Z,488.02
2023-05-22T14:07:12.819Z,473.71
2023-05-22T14:09:46.148Z,483.39
2023-05-22T14:12:19.324Z,473.94
2023-05-22T14:14:53.960Z,474.87
2023-05-22T14:17:27.153Z,476.18
2023-05-22T14:20:00.542Z,478.95
2023-05-22T14:22:41.418Z,469.51
2023-05-22T14:25:21.695Z,457.63
2023-05-22T14:27:54.938Z,463.47
2023-05-22T14:30:29.542Z,469.68
2023-05-22T14:33:02.761Z,450.28
2023-05-22T14:35:36.222Z,463.77
2023-05-22T14:38:09.395Z,473.05
2023-05-22T14:40:42.611Z,462.13
2023-05-22T14:43:15.804Z,465.57
2023-05-22T14:45:50.513Z,469.98
2023-05-22T14:48:26.611Z,460.93
2023-05-22T14:51:00.066Z,470.89
2023-05-22T14:53:33.284Z,478.19
2023-05-22T14:56:06.765Z,474.48
2023-05-22T14:58:39.953Z,472.67
2023-05-22T15:01:14.536Z,454.79
2023-05-22T15:03:48.484Z,442.14
2023-05-22T15:06:22.085Z,584.25
2023-05-22T15:08:55.251Z,1031.58
2023-05-22T15:11:28.431Z,553.00
2023-05-22T15:14:01.595Z,2380.78
2023-05-22T15:16:36.187Z,624.78
2023-05-22T15:19:10.311Z,531.06
2023-05-22T15:21:43.534Z,564.31
2023-05-22T15:24:16.780Z,694.61
2023-05-22T15:26:49.927Z,485.40
2023-05-22T15:29:23.185Z,473.88
2023-05-22T15:31:57.801Z,465.30
2023-05-22T15:34:31.357Z,472.97
2023-05-22T15:37:04.603Z,470.62
2023-05-22T15:39:37.748Z,457.33
2023-05-22T15:42:11.054Z,474.70
2023-05-22T15:44:44.277Z,450.48
2023-05-22T15:47:18.803Z,441.04
2023-05-22T15:49:51.959Z,448.04
2023-05-22T15:52:25.310Z,462.96
2023-05-22T15:54:58.892Z,453.31
2023-05-22T15:57:32.445Z,433.27
2023-05-22T16:00:06.844Z,433.23
2023-05-22T16:02:41.421Z,423.56
2023-05-22T16:05:14.608Z,424.59
2023-05-22T16:07:47.818Z,444.26
2023-05-22T16:10:21.633Z,462.24
2023-05-22T16:12:54.797Z,422.86
2023-05-22T16:15:27.962Z,414.27
2023-05-22T16:18:02.588Z,460.71
2023-05-22T16:20:36.885Z,399.35
2023-05-22T16:23:10.137Z,391.75
2023-05-22T16:25:43.356Z,368.16
2023-05-22T16:28:17.213Z,363.89
2023-05-22T16:30:50.472Z,357.78
2023-05-22T16:33:25.077Z,355.96
2023-05-22T16:35:58.348Z,339.09
2023-05-22T16:38:31.539Z,342.10
2023-05-22T16:41:04.809Z,326.54
2023-05-22T16:43:38.378Z,402.27
2023-05-22T16:46:11.649Z,327.84
2023-05-22T16:48:46.332Z,335.06
2023-05-22T16:51:19.766Z,324.52
2023-05-22T16:53:52.947Z,320.38
2023-05-22T16:56:26.393Z,324.61
2023-05-22T16:58:59.612Z,320.05
2023-05-22T17:01:32.936Z,303.16
2023-05-22T17:04:07.588Z,319.85
2023-05-22T17:06:41.327Z,329.51
2023-05-22T17:09:16.916Z,333.75
2023-05-22T17:11:50.131Z,341.32
2023-05-22T17:14:23.532Z,351.00
2023-05-22T17:16:57.054Z,357.26
2023-05-22T17:19:32.404Z,368.96
2023-05-22T17:22:06.128Z,384.05
2023-05-22T17:24:39.386Z,378.55
2023-05-22T17:29:45.895Z,380.25
2023-05-22T17:32:19.158Z,384.21
2023-05-22T17:34:53.836Z,376.25
2023-05-22T17:37:27.054Z,378.79
2023-05-22T17:40:00.416Z,377.56
2023-05-22T17:42:33.721Z,375.01
2023-05-22T17:45:08.175Z,366.98
2023-05-22T17:47:41.432Z,368.76
2023-05-22T17:50:16.174Z,369.97
2023-05-22T17:52:49.586Z,368.89
2023-05-22T17:55:22.862Z,362.61
2023-05-22T17:57:56.234Z,361.26
2023-05-22T18:00:29.487Z,348.58
2023-05-22T18:03:05.128Z,347.26
2023-05-22T18:05:40.181Z,337.00
2023-05-22T18:08:13.354Z,327.29
2023-05-22T18:10:46.613Z,320.47
2023-05-22T18:13:20.282Z,324.17
2023-05-22T18:15:54.368Z,324.79
2023-05-22T18:18:27.831Z,317.25
2023-05-22T18:21:03.338Z,313.64
2023-05-22T18:23:36.577Z,313.48
2023-05-22T18:26:10.150Z,318.88
2023-05-22T18:28:43.300Z,306.90
2023-05-22T18:31:16.725Z,299.10
2023-05-22T18:33:49.889Z,297.70
2023-05-22T18:36:24.558Z,287.67
2023-05-22T18:38:57.759Z,292.79
2023-05-22T18:41:31.065Z,290.58
2023-05-22T18:44:04.676Z,286.50
2023-05-22T18:46:37.957Z,277.76
2023-05-22T18:49:11.188Z,272.49
2023-05-22T18:51:45.856Z,268.37
2023-05-22T18:54:19.160Z,270.70
2023-05-22T18:56:52.896Z,266.17
2023-05-22T18:59:28.494Z,260.72
2023-05-22T19:02:01.729Z,259.06
2023-05-22T19:04:34.903Z,264.73
2023-05-22T19:07:09.530Z,253.56
2023-05-22T19:09:44.960Z,254.87
2023-05-22T19:12:18.252Z,259.48
2023-05-22T19:14:52.566Z,255.23
2023-05-22T19:17:26.127Z,262.26
2023-05-22T19:19:59.363Z,256.82
2023-05-22T19:22:34.016Z,257.39
2023-05-22T19:25:07.915Z,258.54
2023-05-22T19:27:41.080Z,260.86
2023-05-22T19:30:16.521Z,255.76
2023-05-22T19:32:50.914Z,256.37
2023-05-22T19:35:24.296Z,257.00
2023-05-22T19:37:58.888Z,257.42
2023-05-22T19:40:32.025Z,250.27
2023-05-22T19:43:05.294Z,259.59
2023-05-22T19:45:41.043Z,258.40
2023-05-22T19:48:14.957Z,250.27
2023-05-22T19:50:48.124Z,255.13
2023-05-22T19:53:22.696Z,255.65
2023-05-22T19:56:03.032Z,254.53
2023-05-22T19:58:36.212Z,252.96
2023-05-22T20:01:09.358Z,257.19
2023-05-22T20:03:42.648Z,256.70
2023-05-22T20:06:16.153Z,265.54
2023-05-22T20:08:50.739Z,256.10
2023-05-22T20:11:23.931Z,256.79
2023-05-22T20:13:57.175Z,258.67
2023-05-22T20:16:30.454Z,259.76
2023-05-22T20:19:04.020Z,258.32
2023-05-22T20:21:37.322Z,251.56
2023-05-22T20:24:18.966Z,262.99
2023-05-22T20:26:52.871Z,262.79
2023-05-22T20:29:26.038Z,265.63
2023-05-22T20:31:59.369Z,281.53
2023-05-22T20:34:32.578Z,280.07
2023-05-22T20:37:08.900Z,270.42
2023-05-22T20:39:44.322Z,273.67
2023-05-22T20:42:18.278Z,277.30
2023-05-22T20:44:53.868Z,286.49
2023-05-22T20:47:27.161Z,291.32
2023-05-22T20:50:00.326Z,293.68
2023-05-22T20:52:33.755Z,304.38
2023-05-22T20:55:09.252Z,317.53
2023-05-22T20:57:42.445Z,318.24
2023-05-22T21:00:15.840Z,319.13
2023-05-22T21:02:49.025Z,319.48
2023-05-22T21:05:22.397Z,326.82
2023-05-22T21:07:55.506Z,326.11
2023-05-22T21:10:30.034Z,321.67
2023-05-22T21:13:03.118Z,324.89
2023-05-22T21:15:36.586Z,333.07
2023-05-22T21:18:09.857Z,330.53
2023-05-22T21:20:43.119Z,333.60
2023-05-22T21:23:16.318Z,332.53
2023-05-22T21:25:50.906Z,334.77
2023-05-22T21:28:24.095Z,344.83
2023-05-22T21:30:57.356Z,341.03
2023-05-22T21:33:30.487Z,343.26
2023-05-22T21:36:03.741Z,344.61
2023-05-22T21:38:36.865Z,350.31
2023-05-22T21:41:11.779Z,353.15
2023-05-22T21:43:45.623Z,360.78
2023-05-22T21:46:18.854Z,361.00
2023-05-22T21:48:53.621Z,376.79
2023-05-22T21:51:26.881Z,385.24
2023-05-22T21:54:00.148Z,387.98
2023-05-22T21:56:34.744Z,391.22
2023-05-22T21:59:08.017Z,387.41
2023-05-22T22:01:41.356Z,386.57
2023-05-22T22:04:14.540Z,402.68
2023-05-22T22:06:47.766Z,407.89
2023-05-22T22:09:20.919Z,408.70
2023-05-22T22:11:55.634Z,429.90
2023-05-22T22:14:28.812Z,425.84
2023-05-22T22:17:02.003Z,430.75
2023-05-22T22:19:36.079Z,422.08
2023-05-22T22:22:09.697Z,424.76
2023-05-22T22:24:42.947Z,433.66
2023-05-22T22:27:17.665Z,428.79
2023-05-22T22:29:50.834Z,429.45
2023-05-22T22:32:24.036Z,432.54
2023-05-22T22:34:57.217Z,429.19
2023-05-22T22:37:31.169Z,437.82
2023-05-22T22:40:05.290Z,438.93
2023-05-22T22:42:39.876Z,437.15
2023-05-22T22:45:14.705Z,452.87
2023-05-22T22:47:48.299Z,459.03
2023-05-22T22:50:21.518Z,450.59
2023-05-22T22:52:54.806Z,458.30
2023-05-22T22:55:28.104Z,455.86
2023-05-22T22:58:03.023Z,444.37
2023-05-22T23:00:38.568Z,457.96
2023-05-22T23:03:11.741Z,468.73
2023-05-22T23:05:45.306Z,475.43
2023-05-22T23:08:18.680Z,472.30
2023-05-22T23:10:51.823Z,465.79
2023-05-22T23:13:26.402Z,476.99
2023-05-22T23:15:59.614Z,483.35
2023-05-22T23:18:32.800Z,485.49
2023-05-22T23:21:06.560Z,482.75
2023-05-22T23:23:39.731Z,469.99
2023-05-22T23:26:12.871Z,469.58
2023-05-22T23:28:47.436Z,456.61
2023-05-22T23:31:26.087Z,441.48
2023-05-22T23:34:00.036Z,432.89
2023-05-22T23:36:33.666Z,426.79
2023-05-22T23:39:06.892Z,429.03
2023-05-22T23:41:40.521Z,421.95
2023-05-22T23:44:15.134Z,423.68
2023-05-22T23:46:48.744Z,423.82
2023-05-22T23:49:22.277Z,408.42
2023-05-22T23:51:55.476Z,405.59
2023-05-22T23:54:28.799Z,377.16
2023-05-22T23:57:01.934Z,379.24
2023-05-22T23:59:36.458Z,334.15
